Time;durP1;ratioP1;P1;durP2;ratioP2;P2;SDS_P1;SDS_P2;PMS_P1;PMS_P2;Temp;Humidity;BMP_temperature;BMP_pressure;BME280_temperature;BME280_humidity;BME280_pressure;Samples;Min_cycle;Max_cycle;Signal;HPM_P1;HPM_P2
2022/10/01 00:02:24;;;;;;;61.80;19.00;;;;;;;10.34;100.00;96471.03;108298;1270;22542;-81
2022/10/01 00:04:57;;;;;;;56.30;19.80;;;;;;;10.30;100.00;96476.13;108344;1268;23712;-81
2022/10/01 00:07:28;;;;;;;66.90;18.30;;;;;;;10.30;100.00;96471.34;108458;1265;22889;-81
2022/10/01 00:09:59;;;;;;;69.70;20.90;;;;;;;10.31;100.00;96480.14;108295;1269;40536;-81
2022/10/01 00:12:31;;;;;;;68.30;19.30;;;;;;;10.30;100.00;96479.19;108446;1267;23186;-81
2022/10/01 00:15:02;;;;;;;50.80;18.90;;;;;;;10.29;100.00;96477.71;108475;1267;22555;-81
2022/10/01 00:17:33;;;;;;;78.30;20.00;;;;;;;10.28;100.00;96478.77;108358;1270;22563;-81
2022/10/01 00:20:06;;;;;;;36.00;19.00;;;;;;;10.29;100.00;96474.48;108320;1268;24566;-82
2022/10/01 00:22:39;;;;;;;33.80;19.20;;;;;;;10.31;100.00;96468.10;108456;1267;22548;-81
2022/10/01 00:25:11;;;;;;;34.50;19.80;;;;;;;10.33;100.00;96465.23;108346;1268;22534;-82
2022/10/01 00:27:46;;;;;;;33.10;18.50;;;;;;;10.36;100.00;96462.10;108354;1270;24252;-81
2022/10/01 00:30:17;;;;;;;38.70;18.40;;;;;;;10.39;100.00;96460.16;108325;1267;32490;-81
2022/10/01 00:32:48;;;;;;;39.60;18.70;;;;;;;10.38;100.00;96460.55;108477;1267;25388;-81
2022/10/01 00:35:21;;;;;;;43.60;17.00;;;;;;;10.37;100.00;96456.69;108322;1270;22558;-81
2022/10/01 00:37:52;;;;;;;28.00;17.10;;;;;;;10.36;100.00;96449.28;108499;1267;25299;-81
2022/10/01 00:40:24;;;;;;;33.00;16.60;;;;;;;10.38;100.00;96449.95;108277;1268;28474;-81
2022/10/01 00:42:55;;;;;;;37.10;18.10;;;;;;;10.36;100.00;96445.52;108292;1270;22880;-82
2022/10/01 00:45:26;;;;;;;37.60;18.40;;;;;;;10.33;100.00;96447.25;108344;1270;23043;-81
2022/10/01 00:47:59;;;;;;;37.40;17.90;;;;;;;10.31;100.00;96441.61;108345;1269;25371;-81
2022/10/01 00:50:34;;;;;;;45.10;19.70;;;;;;;10.30;100.00;96440.78;108266;1268;33159;-81
2022/10/01 00:53:10;;;;;;;30.60;19.30;;;;;;;10.30;100.00;96437.54;108284;1270;24204;-81
2022/10/01 00:55:45;;;;;;;31.00;19.70;;;;;;;10.33;100.00;96437.88;108347;1268;22568;-81
2022/10/01 00:58:17;;;;;;;29.60;18.10;;;;;;;10.36;100.00;96439.80;108288;1270;24211;-81
2022/10/01 01:00:48;;;;;;;28.40;17.40;;;;;;;10.39;100.00;96438.70;108209;1270;29131;-81
2022/10/01 01:03:19;;;;;;;27.50;17.30;;;;;;;10.40;100.00;96433.96;108370;1269;22576;-81
2022/10/01 01:05:50;;;;;;;26.60;17.90;;;;;;;10.42;100.00;96439.64;108309;1270;22551;-81
2022/10/01 01:08:24;;;;;;;64.70;18.20;;;;;;;10.41;100.00;96432.52;108358;1270;23489;-81
2022/10/01 01:11:04;;;;;;;29.30;17.70;;;;;;;10.38;100.00;96435.48;108374;1269;22556;-81
2022/10/01 01:13:44;;;;;;;27.90;17.50;;;;;;;10.40;100.00;96430.90;108302;1270;22597;-81
2022/10/01 01:16:26;;;;;;;26.50;17.00;;;;;;;10.43;100.00;96426.65;108315;1270;22535;-81
2022/10/01 01:19:04;;;;;;;86.50;20.30;;;;;;;10.46;100.00;96422.11;108278;1270;30631;-81
2022/10/01 01:21:41;;;;;;;54.30;15.80;;;;;;;10.45;100.00;96418.14;108331;1268;22563;-81
2022/10/01 01:24:36;;;;;;;44.10;16.60;;;;;;;10.44;100.00;96420.05;108328;1270;22552;-81
2022/10/01 01:27:24;;;;;;;65.60;16.70;;;;;;;10.44;100.00;96421.49;108342;1270;23333;-81
2022/10/01 01:30:03;;;;;;;33.00;17.60;;;;;;;10.46;100.00;96418.34;108208;1270;25945;-81
2022/10/01 01:32:40;;;;;;;35.20;17.40;;;;;;;10.47;100.00;96424.79;108248;1270;24066;-81
2022/10/01 01:35:16;;;;;;;28.90;16.60;;;;;;;10.48;100.00;96438.56;108328;1270;22538;-82
2022/10/01 01:37:53;;;;;;;37.70;17.60;;;;;;;10.47;100.00;96444.46;108314;1270;22522;-81
2022/10/01 01:40:25;;;;;;;35.10;16.80;;;;;;;10.47;100.00;96448.23;108305;1270;29740;-82
2022/10/01 01:42:58;;;;;;;29.30;17.70;;;;;;;10.47;100.00;96441.49;108163;1270;203054;-81
2022/10/01 01:45:32;;;;;;;24.10;15.70;;;;;;;10.48;100.00;96440.73;108257;1270;22665;-81
2022/10/01 01:48:07;;;;;;;24.00;15.90;;;;;;;10.49;100.00;96437.98;108343;1270;22533;-82
2022/10/01 01:50:49;;;;;;;24.80;16.10;;;;;;;10.49;100.00;96437.33;108130;1270;24495;-82
2022/10/01 01:53:25;;;;;;;24.70;15.60;;;;;;;10.49;100.00;96441.63;108310;1270;24233;-81
2022/10/01 01:55:56;;;;;;;25.20;15.20;;;;;;;10.50;100.00;96438.49;108264;1270;25164;-81
2022/10/01 01:58:28;;;;;;;26.10;15.00;;;;;;;10.50;100.00;96444.89;108207;1270;27419;-81
2022/10/01 02:01:00;;;;;;;46.70;15.40;;;;;;;10.51;100.00;96450.66;108346;1270;24286;-81
2022/10/01 02:03:33;;;;;;;30.30;15.40;;;;;;;10.46;100.00;96453.86;108361;1268;22628;-81
2022/10/01 02:06:20;;;;;;;29.70;16.80;;;;;;;10.42;100.00;96461.10;108355;1268;22637;-81
2022/10/01 02:08:58;;;;;;;34.90;16.10;;;;;;;10.42;100.00;96466.36;108307;1270;24932;-81
2022/10/01 02:11:35;;;;;;;31.80;18.90;;;;;;;10.40;100.00;96467.63;108334;1268;22655;-81
2022/10/01 02:14:16;;;;;;;33.50;18.60;;;;;;;10.40;100.00;96464.70;108307;1270;24265;-81
2022/10/01 02:16:56;;;;;;;31.90;19.80;;;;;;;10.42;100.00;96461.48;108300;1270;22524;-81
2022/10/01 02:19:33;;;;;;;92.50;19.30;;;;;;;10.41;100.00;96461.95;108270;1269;26976;-81
2022/10/01 02:22:11;;;;;;;171.70;19.40;;;;;;;10.38;100.00;96461.45;108340;1268;24300;-81
2022/10/01 02:24:48;;;;;;;109.00;17.50;;;;;;;10.33;100.00;96462.20;108341;1268;22545;-81
2022/10/01 02:27:25;;;;;;;32.40;17.30;;;;;;;10.32;100.00;96464.70;108316;1270;23856;-81
2022/10/01 02:29:58;;;;;;;36.20;16.50;;;;;;;10.33;100.00;96466.65;108270;1268;26955;-81
2022/10/01 02:32:36;;;;;;;27.00;17.10;;;;;;;10.34;100.00;96470.56;108333;1270;23734;-80
2022/10/01 02:35:11;;;;;;;45.50;16.10;;;;;;;10.36;100.00;96471.59;108354;1270;23308;-81
2022/10/01 02:37:45;;;;;;;27.50;17.40;;;;;;;10.35;100.00;96468.11;108316;1270;22488;-81
2022/10/01 02:40:24;;;;;;;26.90;17.10;;;;;;;10.35;100.00;96465.83;108268;1270;32802;-81
2022/10/01 02:42:59;;;;;;;27.70;16.40;;;;;;;10.38;100.00;96467.12;108362;1268;22628;-82
2022/10/01 02:45:35;;;;;;;23.50;15.00;;;;;;;10.39;100.00;96464.92;108271;1270;22571;-81
2022/10/01 02:48:11;;;;;;;32.30;16.30;;;;;;;10.41;100.00;96464.07;108326;1269;23345;-81
2022/10/01 02:50:48;;;;;;;25.70;16.30;;;;;;;10.41;100.00;96467.52;108302;1269;30643;-81
2022/10/01 02:53:24;;;;;;;31.80;16.50;;;;;;;10.41;100.00;96465.56;108343;1269;22524;-81
2022/10/01 02:55:56;;;;;;;25.20;16.30;;;;;;;10.40;100.00;96465.45;108345;1268;25239;-81
2022/10/01 02:58:28;;;;;;;36.50;17.40;;;;;;;10.42;100.00;96461.10;108218;1270;29604;-81
2022/10/01 03:00:59;;;;;;;26.50;17.10;;;;;;;10.42;100.00;96462.80;108322;1268;22536;-81
2022/10/01 03:03:31;;;;;;;21.10;15.10;;;;;;;10.38;100.00;96466.38;108333;1270;22535;-81
2022/10/01 03:06:02;;;;;;;20.60;15.10;;;;;;;10.34;100.00;96466.27;108307;1270;22522;-81
2022/10/01 03:08:33;;;;;;;20.40;14.70;;;;;;;10.31;100.00;96464.92;108265;1268;28601;-81
2022/10/01 03:11:07;;;;;;;21.80;14.90;;;;;;;10.30;100.00;96465.04;108345;1270;22553;-81
2022/10/01 03:13:42;;;;;;;29.20;18.20;;;;;;;10.30;100.00;96460.48;108326;1268;22558;-81
2022/10/01 03:16:13;;;;;;;24.70;18.00;;;;;;;10.30;100.00;96461.38;108362;1268;24214;-81
2022/10/01 03:18:44;;;;;;;22.70;17.00;;;;;;;10.31;100.00;96461.52;108288;1270;25727;-81
2022/10/01 03:21:15;;;;;;;26.50;16.70;;;;;;;10.32;100.00;96460.41;108343;1270;22596;-81
2022/10/01 03:23:46;;;;;;;20.40;15.30;;;;;;;10.34;100.00;96453.92;108315;1270;23288;-81
2022/10/01 03:26:19;;;;;;;20.90;14.80;;;;;;;10.34;100.00;96454.50;108347;1270;25460;-81
2022/10/01 03:28:50;;;;;;;21.50;14.10;;;;;;;10.32;100.00;96455.59;108228;1270;30035;-81
2022/10/01 03:31:22;;;;;;;17.30;13.60;;;;;;;10.29;100.00;96454.41;108338;1270;25236;-81
2022/10/01 03:33:53;;;;;;;19.20;13.50;;;;;;;10.28;100.00;96457.04;108305;1270;22674;-81
2022/10/01 03:36:24;;;;;;;17.20;13.00;;;;;;;10.30;100.00;96460.70;108319;1271;22649;-81
2022/10/01 03:38:55;;;;;;;17.50;12.70;;;;;;;10.30;100.00;96455.66;108213;1270;29825;-81
2022/10/01 03:41:28;;;;;;;16.60;12.20;;;;;;;10.30;100.00;96447.61;108309;1270;22532;-81
2022/10/01 03:43:59;;;;;;;17.80;13.10;;;;;;;10.30;100.00;96449.52;108316;1268;23838;-81
2022/10/01 03:46:30;;;;;;;18.70;13.40;;;;;;;10.31;100.00;96446.32;108322;1268;24082;-81
2022/10/01 03:49:01;;;;;;;18.50;11.60;;;;;;;10.31;100.00;96449.29;108231;1270;37571;-81
2022/10/01 03:51:35;;;;;;;12.80;9.20;;;;;;;10.30;100.00;96451.69;108345;1270;23471;-81
2022/10/01 03:54:08;;;;;;;10.50;8.70;;;;;;;10.26;100.00;96452.61;108304;1269;22555;-81
2022/10/01 03:56:41;;;;;;;9.90;8.20;;;;;;;10.22;100.00;96452.54;108355;1268;24307;-81
2022/10/01 03:59:13;;;;;;;11.60;9.10;;;;;;;10.21;100.00;96453.86;108314;1270;26588;-81
2022/10/01 04:01:44;;;;;;;11.40;8.90;;;;;;;10.20;100.00;96451.48;108328;1269;23240;-81
2022/10/01 04:04:17;;;;;;;13.90;9.50;;;;;;;10.22;100.00;96447.40;108302;1270;25402;-81
2022/10/01 04:06:48;;;;;;;19.60;11.00;;;;;;;10.23;100.00;96451.48;108342;1270;25364;-81
2022/10/01 04:09:19;;;;;;;19.00;12.50;;;;;;;10.23;100.00;96445.80;108261;1270;32045;-81
2022/10/01 04:11:50;;;;;;;16.70;13.10;;;;;;;10.23;100.00;96446.49;108304;1270;22541;-81
2022/10/01 04:14:21;;;;;;;42.10;13.30;;;;;;;10.22;100.00;96446.81;108314;1270;22559;-81
2022/10/01 04:16:52;;;;;;;19.50;13.20;;;;;;;10.20;100.00;96445.80;108333;1270;25286;-81
2022/10/01 04:19:23;;;;;;;17.10;12.80;;;;;;;10.22;100.00;96444.27;108252;1268;31686;-81
2022/10/01 04:21:55;;;;;;;17.30;12.70;;;;;;;10.25;100.00;96446.41;108338;1269;22568;-81
2022/10/01 04:24:26;;;;;;;22.00;12.80;;;;;;;10.27;100.00;96451.38;108331;1269;23854;-81
2022/10/01 04:26:57;;;;;;;32.70;13.60;;;;;;;10.29;100.00;96456.73;108358;1269;24239;-81
2022/10/01 04:29:28;;;;;;;19.00;12.60;;;;;;;10.30;100.00;96455.65;108298;1268;28736;-81
2022/10/01 04:32:02;;;;;;;18.10;13.50;;;;;;;10.32;100.00;96454.67;108342;1269;22561;-81
2022/10/01 04:37:18;;;;;;;16.70;12.50;;;;;;;10.32;100.00;96451.02;108320;1270;25386;-81
2022/10/01 04:39:50;;;;;;;16.30;12.30;;;;;;;10.31;100.00;96448.76;108259;1270;35450;-81
2022/10/01 04:42:21;;;;;;;20.60;13.70;;;;;;;10.28;100.00;96448.24;108314;1270;22584;-81
2022/10/01 04:44:52;;;;;;;21.10;14.00;;;;;;;10.24;100.00;96447.21;108330;1270;22556;-81
2022/10/01 04:47:24;;;;;;;20.90;14.80;;;;;;;10.26;100.00;96446.20;108281;1270;22628;-81
2022/10/01 04:49:55;;;;;;;25.10;15.10;;;;;;;10.29;100.00;96446.24;108222;1270;28557;-82
2022/10/01 04:52:26;;;;;;;39.90;15.80;;;;;;;10.30;100.00;96447.02;108311;1269;22657;-81
2022/10/01 04:54:57;;;;;;;19.90;13.90;;;;;;;10.31;100.00;96448.65;108350;1268;24161;-81
2022/10/01 04:57:28;;;;;;;22.10;15.10;;;;;;;10.26;100.00;96450.81;108298;1271;22564;-81
2022/10/01 05:00:00;;;;;;;17.70;14.00;;;;;;;10.23;100.00;96450.52;108265;1268;33321;-81
2022/10/01 05:02:33;;;;;;;15.60;12.40;;;;;;;10.23;100.00;96449.45;108356;1268;22575;-81
2022/10/01 05:05:06;;;;;;;17.30;12.40;;;;;;;10.26;100.00;96449.52;108302;1270;23027;-81
2022/10/01 05:07:39;;;;;;;49.70;14.30;;;;;;;10.27;100.00;96447.56;108373;1268;22538;-81
2022/10/01 05:10:14;;;;;;;58.50;14.80;;;;;;;10.24;100.00;96440.70;108295;1271;33513;-81
2022/10/01 05:12:46;;;;;;;49.60;13.70;;;;;;;10.23;100.00;96441.61;108381;1268;23106;-81
2022/10/01 05:15:19;;;;;;;17.90;12.80;;;;;;;10.24;100.00;96442.56;108329;1268;23116;-81
2022/10/01 05:17:51;;;;;;;15.80;13.30;;;;;;;10.27;100.00;96448.26;108374;1268;22711;-81
2022/10/01 05:20:26;;;;;;;14.20;12.20;;;;;;;10.33;100.00;96449.75;108261;1271;32365;-81
2022/10/01 05:22:57;;;;;;;14.10;11.10;;;;;;;10.36;100.00;96460.14;108341;1268;22559;-81
2022/10/01 05:25:30;;;;;;;14.30;10.40;;;;;;;10.38;100.00;96472.84;108354;1268;22560;-81
2022/10/01 05:28:05;;;;;;;9.80;8.80;;;;;;;10.38;100.00;96470.92;108350;1268;22562;-81
2022/10/01 05:30:36;;;;;;;10.90;9.30;;;;;;;10.40;100.00;96470.06;108268;1268;28789;-81
2022/10/01 05:33:07;;;;;;;11.60;8.90;;;;;;;10.43;100.00;96467.67;108303;1271;22598;-81
2022/10/01 05:35:40;;;;;;;10.40;8.50;;;;;;;10.47;100.00;96468.84;108352;1268;25364;-81
2022/10/01 05:38:11;;;;;;;11.00;9.00;;;;;;;10.49;100.00;96465.37;108342;1268;23827;-81
2022/10/01 05:40:47;;;;;;;19.20;11.10;;;;;;;10.51;100.00;96460.56;108254;1268;29241;-81
2022/10/01 05:43:18;;;;;;;24.70;13.10;;;;;;;10.52;100.00;96462.10;108315;1269;24879;-81
2022/10/01 05:45:50;;;;;;;15.10;12.10;;;;;;;10.50;100.00;96464.66;108379;1268;25927;-81
2022/10/01 05:48:24;;;;;;;56.20;13.30;;;;;;;10.49;100.00;96469.09;108273;1268;34198;-80
2022/10/01 05:50:55;;;;;;;30.70;12.90;;;;;;;10.47;100.00;96469.90;108340;1270;22471;-81
2022/10/01 05:53:26;;;;;;;73.30;14.90;;;;;;;10.48;100.00;96464.27;108332;1271;22532;-81
2022/10/01 05:55:59;;;;;;;69.00;14.50;;;;;;;10.48;100.00;96466.23;108335;1271;22550;-81
2022/10/01 05:58:30;;;;;;;47.50;13.60;;;;;;;10.48;100.00;96471.95;108243;1271;28725;-81
2022/10/01 06:01:03;;;;;;;54.80;14.90;;;;;;;10.48;100.00;96468.52;108423;1268;25235;-81
2022/10/01 06:03:34;;;;;;;53.70;15.50;;;;;;;10.45;100.00;96461.82;108389;1268;22536;-81
2022/10/01 06:06:06;;;;;;;35.00;16.10;;;;;;;10.41;100.00;96461.53;108404;1268;22688;-81
2022/10/01 06:08:39;;;;;;;36.00;15.30;;;;;;;10.39;100.00;96459.26;108329;1268;38751;-81
2022/10/01 06:11:10;;;;;;;29.60;15.00;;;;;;;10.41;100.00;96457.98;108403;1268;22733;-81
2022/10/01 06:13:45;;;;;;;32.70;16.20;;;;;;;10.39;100.00;96452.42;108376;1268;25443;-81
2022/10/01 06:16:17;;;;;;;33.90;15.50;;;;;;;10.39;100.00;96454.77;108357;1268;24357;-82
2022/10/01 06:18:50;;;;;;;33.90;16.60;;;;;;;10.43;100.00;96454.27;108347;1268;30545;-81
2022/10/01 06:21:22;;;;;;;37.50;16.60;;;;;;;10.47;100.00;96454.42;108309;1268;22540;-81
2022/10/01 06:23:54;;;;;;;27.10;17.70;;;;;;;10.48;100.00;96458.85;108326;1268;25364;-81
2022/10/01 06:26:26;;;;;;;19.60;15.60;;;;;;;10.53;100.00;96454.67;108368;1268;22640;-81
2022/10/01 06:28:57;;;;;;;19.50;16.40;;;;;;;10.59;100.00;96454.20;108347;1268;24614;-81
2022/10/01 06:31:29;;;;;;;17.70;15.40;;;;;;;10.64;100.00;96450.54;108328;1268;25253;-82
2022/10/01 06:34:00;;;;;;;18.40;15.70;;;;;;;10.68;100.00;96445.07;108428;1268;22670;-81
2022/10/01 06:36:33;;;;;;;17.20;14.60;;;;;;;10.73;100.00;96443.98;108407;1268;22666;-81
2022/10/01 06:39:05;;;;;;;16.90;14.40;;;;;;;10.77;100.00;96446.41;108269;1268;28407;-81
2022/10/01 06:41:36;;;;;;;18.40;14.90;;;;;;;10.82;100.00;96448.10;108406;1268;22678;-82
2022/10/01 06:44:08;;;;;;;16.60;14.10;;;;;;;10.86;100.00;96446.69;108321;1268;22660;-82
2022/10/01 06:46:39;;;;;;;15.80;13.70;;;;;;;10.89;100.00;96446.12;108362;1268;22523;-82
2022/10/01 06:49:12;;;;;;;16.80;14.20;;;;;;;10.93;100.00;96443.67;108334;1267;30896;-81
2022/10/01 06:54:33;;;;;;;18.00;14.90;;;;;;;11.04;100.00;96439.51;108397;1268;25245;-82
2022/10/01 06:57:07;;;;;;;18.30;14.90;;;;;;;11.04;100.00;96442.59;108377;1268;24229;-81
2022/10/01 06:59:38;;;;;;;18.50;15.20;;;;;;;10.99;100.00;96444.94;108273;1268;28953;-81
2022/10/01 07:02:20;;;;;;;18.90;14.80;;;;;;;10.97;100.00;96441.66;108338;1268;23614;-82
2022/10/01 07:04:51;;;;;;;16.70;13.60;;;;;;;10.98;100.00;96441.23;108430;1268;22560;-81
2022/10/01 07:07:23;;;;;;;18.00;14.70;;;;;;;10.97;100.00;96438.05;108395;1268;22714;-81
2022/10/01 07:09:54;;;;;;;18.60;15.90;;;;;;;10.96;100.00;96436.89;108326;1268;27659;-81
2022/10/01 07:12:26;;;;;;;19.70;15.80;;;;;;;10.99;100.00;96437.14;108402;1268;22549;-82
2022/10/01 07:14:58;;;;;;;18.90;15.80;;;;;;;11.00;100.00;96429.91;108318;1268;22564;-81
2022/10/01 07:17:29;;;;;;;18.40;15.50;;;;;;;11.03;100.00;96431.45;108380;1268;23848;-81
2022/10/01 07:20:01;;;;;;;21.40;16.80;;;;;;;11.06;100.00;96434.33;108233;1268;26575;-81
2022/10/01 07:22:33;;;;;;;19.10;15.40;;;;;;;11.08;100.00;96434.14;108224;1271;22826;-81
2022/10/01 07:25:08;;;;;;;18.40;15.20;;;;;;;11.10;100.00;96432.63;108280;1269;22538;-81
2022/10/01 07:27:40;;;;;;;20.60;15.20;;;;;;;11.10;100.00;96428.02;108241;1271;22547;-81
2022/10/01 07:30:12;;;;;;;19.70;15.70;;;;;;;11.10;100.00;96417.51;108218;1271;25701;-81
2022/10/01 07:32:49;;;;;;;16.90;14.80;;;;;;;11.16;100.00;96418.19;108212;1268;22563;-81
2022/10/01 07:35:20;;;;;;;19.50;16.50;;;;;;;11.29;100.00;96418.33;108197;1270;23896;-81
2022/10/01 07:37:54;;;;;;;17.60;15.50;;;;;;;11.43;100.00;96414.47;108284;1271;22479;-81
2022/10/01 07:40:26;;;;;;;17.50;15.40;;;;;;;11.53;100.00;96411.70;108143;1270;36051;-81
2022/10/01 07:42:58;;;;;;;18.10;15.90;;;;;;;11.60;100.00;96411.02;108298;1268;22980;-81
2022/10/01 07:45:29;;;;;;;20.10;16.30;;;;;;;11.68;100.00;96405.42;108260;1271;24092;-81
2022/10/01 07:48:03;;;;;;;18.20;14.90;;;;;;;11.78;100.00;96404.42;108262;1271;22571;-81
2022/10/01 07:50:35;;;;;;;16.50;14.50;;;;;;;11.83;100.00;96404.48;108278;1268;25702;-81
2022/10/01 07:53:06;;;;;;;16.90;14.20;;;;;;;11.84;100.00;96400.69;108240;1270;25380;-81
2022/10/01 07:55:40;;;;;;;16.60;14.20;;;;;;;11.84;100.00;96398.34;108332;1268;22634;-81
2022/10/01 07:58:12;;;;;;;14.80;12.90;;;;;;;11.84;100.00;96397.65;108295;1270;22601;-81
2022/10/01 08:00:43;;;;;;;14.50;12.90;;;;;;;11.81;100.00;96401.05;108273;1268;26826;-81
2022/10/01 08:03:15;;;;;;;15.20;12.90;;;;;;;11.78;100.00;96401.08;108325;1268;22568;-82
2022/10/01 08:05:46;;;;;;;14.40;12.50;;;;;;;11.78;100.00;96398.30;108334;1268;24174;-82
2022/10/01 08:08:20;;;;;;;14.50;13.00;;;;;;;11.82;100.00;96389.35;108321;1268;24125;-82
2022/10/01 08:10:52;;;;;;;14.50;13.00;;;;;;;11.87;100.00;96388.84;108268;1270;22550;-81
2022/10/01 08:13:24;;;;;;;13.70;12.20;;;;;;;11.93;100.00;96391.34;108344;1268;22609;-81
2022/10/01 08:15:56;;;;;;;13.70;12.20;;;;;;;11.97;100.00;96387.35;108338;1268;22556;-82
2022/10/01 08:18:27;;;;;;;13.70;11.70;;;;;;;12.05;100.00;96385.45;108231;1268;37089;-80
2022/10/01 08:21:01;;;;;;;13.70;12.30;;;;;;;12.12;100.00;96383.41;108243;1269;22530;-81
2022/10/01 08:23:33;;;;;;;14.70;13.10;;;;;;;12.21;100.00;96380.75;108313;1268;24377;-81
2022/10/01 08:26:08;;;;;;;13.00;11.40;;;;;;;12.34;100.00;96373.98;108327;1268;22495;-81
2022/10/01 08:28:40;;;;;;;12.30;10.90;;;;;;;12.52;100.00;96380.59;108251;1268;28138;-82
2022/10/01 08:31:12;;;;;;;12.20;10.90;;;;;;;12.68;100.00;96382.08;108280;1270;25417;-81
2022/10/01 08:33:44;;;;;;;14.40;11.60;;;;;;;12.81;100.00;96374.33;108274;1270;23349;-81
2022/10/01 08:36:15;;;;;;;12.40;11.10;;;;;;;12.91;100.00;96364.33;108344;1268;22701;-81
2022/10/01 08:38:50;;;;;;;11.40;10.10;;;;;;;13.07;100.00;96363.25;108194;1270;34543;-81
2022/10/01 08:41:33;;;;;;;10.60;9.50;;;;;;;13.26;100.00;96365.03;108352;1268;22538;-82
2022/10/01 08:44:14;;;;;;;10.30;9.20;;;;;;;13.42;100.00;96363.89;108248;1270;22588;-82
2022/10/01 08:46:47;;;;;;;7.10;6.30;;;;;;;13.42;100.00;96361.91;108334;1268;22523;-82
2022/10/01 08:49:24;;;;;;;7.70;6.70;;;;;;;13.32;100.00;96358.66;108286;1268;29059;-82
2022/10/01 08:52:02;;;;;;;9.10;6.90;;;;;;;13.24;100.00;96355.38;108359;1268;25373;-82
2022/10/01 08:54:40;;;;;;;8.60;7.70;;;;;;;13.20;100.00;96347.32;108267;1270;23727;-82
2022/10/01 08:57:17;;;;;;;8.60;7.40;;;;;;;13.22;100.00;96347.44;108349;1268;23846;-82
2022/10/01 08:59:52;;;;;;;8.60;7.10;;;;;;;13.29;100.00;96339.25;108201;1270;28895;-82
2022/10/01 09:02:27;;;;;;;7.10;6.30;;;;;;;13.42;100.00;96333.98;108245;1270;22538;-82
2022/10/01 09:05:01;;;;;;;7.40;6.60;;;;;;;13.54;100.00;96332.14;108261;1270;22574;-82
2022/10/01 09:07:50;;;;;;;6.80;5.90;;;;;;;13.62;100.00;96333.50;108287;1270;22528;-82
2022/10/01 09:10:32;;;;;;;6.50;5.90;;;;;;;13.58;100.00;96333.91;108165;1270;25108;-82
2022/10/01 09:13:28;;;;;;;6.90;6.20;;;;;;;13.50;100.00;96335.12;108204;1270;22535;-82
2022/10/01 09:16:09;;;;;;;8.00;7.20;;;;;;;13.43;100.00;96327.96;108284;1270;22659;-82
2022/10/01 09:18:54;;;;;;;7.90;7.10;;;;;;;13.44;100.00;96328.99;108166;1270;26309;-82
2022/10/01 09:21:35;;;;;;;9.00;7.60;;;;;;;13.52;100.00;96327.30;108255;1270;22484;-82
2022/10/01 09:24:15;;;;;;;6.90;6.10;;;;;;;13.60;100.00;96325.27;108183;1270;22557;-83
2022/10/01 09:26:49;;;;;;;8.80;7.00;;;;;;;13.65;100.00;96326.98;108269;1270;22533;-82
2022/10/01 09:29:28;;;;;;;8.20;6.70;;;;;;;13.69;100.00;96326.06;108250;1268;35138;-82
2022/10/01 09:32:03;;;;;;;6.90;6.20;;;;;;;13.69;100.00;96322.73;108411;1268;22545;-82
2022/10/01 09:34:37;;;;;;;6.00;5.40;;;;;;;13.69;100.00;96318.23;108419;1268;23389;-82
2022/10/01 09:37:22;;;;;;;6.70;5.80;;;;;;;13.71;100.00;96322.05;108398;1268;22535;-82
2022/10/01 09:40:06;;;;;;;5.90;5.20;;;;;;;13.75;100.00;96319.16;108345;1268;29482;-82
2022/10/01 09:42:38;;;;;;;5.60;5.00;;;;;;;13.78;100.00;96322.39;108453;1268;22571;-82
2022/10/01 09:45:14;;;;;;;6.00;5.20;;;;;;;13.82;100.00;96315.92;108402;1268;24213;-82
2022/10/01 09:47:51;;;;;;;11.90;8.90;;;;;;;13.88;100.00;96315.59;108363;1268;22545;-82
2022/10/01 09:50:30;;;;;;;10.60;7.50;;;;;;;13.89;100.00;96316.66;108213;1270;24487;-82
2022/10/01 09:53:02;;;;;;;8.10;6.40;;;;;;;13.91;100.00;96316.61;108203;1270;25379;-82
2022/10/01 09:55:40;;;;;;;6.90;5.90;;;;;;;13.94;100.00;96318.80;108196;1270;22544;-82
2022/10/01 09:58:17;;;;;;;5.60;5.00;;;;;;;13.94;100.00;96315.77;108284;1270;22963;-83
2022/10/01 10:00:52;;;;;;;5.90;4.50;;;;;;;13.92;100.00;96314.45;108313;1270;24248;-83
2022/10/01 10:03:29;;;;;;;5.70;5.10;;;;;;;13.89;100.00;96312.96;108291;1270;22534;-82
2022/10/01 10:06:01;;;;;;;9.00;7.60;;;;;;;13.82;100.00;96310.80;108282;1270;22555;-82
2022/10/01 10:08:36;;;;;;;6.30;5.60;;;;;;;13.73;100.00;96311.19;108110;1270;39129;-82
2022/10/01 10:11:11;;;;;;;7.40;6.00;;;;;;;13.67;100.00;96311.13;108270;1270;22629;-83
2022/10/01 10:13:50;;;;;;;8.90;7.40;;;;;;;13.59;100.00;96303.59;108367;1268;25312;-83
2022/10/01 10:16:25;;;;;;;10.80;9.30;;;;;;;13.49;100.00;96299.05;108308;1268;22534;-83
2022/10/01 10:19:01;;;;;;;9.30;8.10;;;;;;;13.44;100.00;96303.63;108275;1268;31863;-82
2022/10/01 10:21:34;;;;;;;10.50;9.00;;;;;;;13.36;100.00;96307.33;108326;1268;22575;-83
2022/10/01 10:24:21;;;;;;;11.00;8.80;;;;;;;13.27;100.00;96302.92;108366;1268;23703;-82
2022/10/01 10:26:58;;;;;;;8.80;7.40;;;;;;;13.24;100.00;96295.91;108334;1268;22545;-83
2022/10/01 10:29:31;;;;;;;10.40;8.60;;;;;;;13.14;100.00;96288.89;108193;1270;25253;-82
2022/10/01 10:32:08;;;;;;;9.10;8.00;;;;;;;13.10;100.00;96288.04;108344;1268;23361;-83
2022/10/01 10:34:42;;;;;;;10.50;9.00;;;;;;;13.13;100.00;96283.21;108334;1268;24329;-82
2022/10/01 10:37:17;;;;;;;9.90;8.70;;;;;;;13.18;100.00;96281.77;108345;1268;22526;-83
2022/10/01 10:39:52;;;;;;;11.20;9.00;;;;;;;13.21;100.00;96276.17;108185;1270;32987;-82
2022/10/01 10:42:24;;;;;;;10.30;9.00;;;;;;;13.23;100.00;96268.73;108325;1268;22540;-83
2022/10/01 10:45:03;;;;;;;18.50;16.00;;;;;;;13.23;100.00;96262.20;108324;1268;22543;-83
2022/10/01 10:47:47;;;;;;;14.50;13.00;;;;;;;13.20;100.00;96258.85;108353;1267;22533;-82
2022/10/01 10:50:30;;;;;;;12.60;10.70;;;;;;;13.10;100.00;96252.87;108214;1270;29962;-82
2022/10/01 10:53:18;;;;;;;11.50;10.20;;;;;;;13.01;100.00;96251.05;108339;1268;23269;-82
2022/10/01 10:55:59;;;;;;;13.00;11.40;;;;;;;12.94;100.00;96244.67;108357;1268;23315;-83
2022/10/01 10:58:33;;;;;;;14.70;12.70;;;;;;;12.95;100.00;96245.52;108264;1268;27555;-82
2022/10/01 11:01:12;;;;;;;14.90;13.30;;;;;;;13.00;100.00;96238.44;108340;1267;23239;-82
2022/10/01 11:03:47;;;;;;;14.30;12.60;;;;;;;13.01;100.00;96236.31;108339;1268;22538;-82
2022/10/01 11:06:19;;;;;;;17.70;14.30;;;;;;;13.05;100.00;96232.92;108329;1268;22563;-82
2022/10/01 11:09:03;;;;;;;15.10;13.10;;;;;;;13.03;100.00;96228.81;108263;1268;29797;-82
2022/10/01 11:11:55;;;;;;;16.20;14.10;;;;;;;12.98;100.00;96225.18;108377;1268;22542;-82
2022/10/01 11:14:43;;;;;;;16.70;13.90;;;;;;;12.92;100.00;96220.14;108343;1268;22582;-82
2022/10/01 11:17:41;;;;;;;18.00;14.80;;;;;;;12.86;100.00;96213.38;108326;1268;22553;-83
2022/10/01 11:20:32;;;;;;;14.80;12.20;;;;;;;12.83;100.00;96207.86;108240;1268;31404;-82
2022/10/01 11:23:26;;;;;;;17.20;14.00;;;;;;;12.81;100.00;96199.52;108344;1268;24836;-82
2022/10/01 11:26:16;;;;;;;14.60;13.10;;;;;;;12.87;100.00;96198.24;108350;1270;22536;-82
2022/10/01 11:29:04;;;;;;;16.90;14.20;;;;;;;12.91;100.00;96197.23;108272;1268;30736;-82
2022/10/01 11:31:45;;;;;;;14.20;11.90;;;;;;;12.91;100.00;96194.73;108271;1270;24897;-83
2022/10/01 11:34:37;;;;;;;15.20;12.70;;;;;;;12.91;100.00;96190.44;108323;1270;22530;-83
2022/10/01 11:37:19;;;;;;;15.80;14.00;;;;;;;12.91;100.00;96192.50;108390;1268;22632;-83
2022/10/01 11:39:54;;;;;;;14.50;13.00;;;;;;;12.90;100.00;96195.50;108241;1270;35275;-83
2022/10/01 11:42:35;;;;;;;13.70;11.90;;;;;;;12.91;100.00;96192.34;108338;1268;24214;-82
2022/10/01 11:45:15;;;;;;;14.70;13.20;;;;;;;12.95;100.00;96189.44;108335;1268;22594;-83